^^
Meteo Knjazevac Station Historical Data
Daily Summary for April 4, 2021 Units:  English    Metric   Both
Daily Weekly Monthly Yearly Custom
  High: Low: Average:
Temperature: 84.9 °F 58.3 °F 71.7 °F
Dew Point: 65.6 °F 57.1 °F 60.7 °F
Humidity: 98% 44% 72%
Wind Speed: 10mph 0mph 3.1mph
Wind Gust: 20mph - -
Wind- - SW
Pressure: 30.05 in 29.93 in -
Precipitation: 0.01 in    
Historical Graphs
 
 
Tabular Data for April 4, 2021
Time Temperature Dew Point Pressure Wind Wind Speed Wind Gust Humidity Rainfall Rate (Hourly) solar Conditions
00:00 64.8 °F 61.1 °F 30.05 in NNE 1 mph 7 mph 88% 0.02 in 0 W/m2
00:10 64.6 °F 61.6 °F 30.04 in NNE 1 mph 3 mph 90% 0.00 in 0 W/m2
00:20 64.4 °F 61.7 °F 30.04 in SSW 2 mph 4 mph 91% 0.00 in 0 W/m2
00:30 64 °F 61.4 °F 30.04 in SSW 3 mph 6 mph 91% 0.00 in 0 W/m2
00:40 63.5 °F 61.4 °F 30.03 in SW 2 mph 7 mph 93% 0.00 in 0 W/m2
00:50 63.3 °F 61.3 °F 30.03 in SW 2 mph 5 mph 93% 0.00 in 0 W/m2
01:00 63.1 °F 61.4 °F 30.03 in SW 1 mph 4 mph 94% 0.00 in 0 W/m2
01:10 63 °F 60.9 °F 30.03 in Calm   5 mph 93% 0.00 in 0 W/m2
01:20 62.8 °F 60.7 °F 30.03 in North 1 mph 2 mph 93% 0.00 in 0 W/m2
01:30 62.5 °F 60.5 °F 30.02 in Calm   2 mph 93% 0.00 in 0 W/m2
01:40 62.4 °F 60.7 °F 30.03 in Calm   2 mph 94% 0.00 in 0 W/m2
01:50 62.2 °F 60.5 °F 30.02 in ESE 2 mph 5 mph 94% 0.00 in 0 W/m2
02:00 61.9 °F 60.1 °F 30.02 in ESE 2 mph 6 mph 94% 0.00 in 0 W/m2
02:10 61.8 °F 60.4 °F 30.02 in Calm   2 mph 95% 0.00 in 0 W/m2
02:20 61.5 °F 60.1 °F 30.02 in Calm   2 mph 95% 0.00 in 0 W/m2
02:30 61.5 °F 60.1 °F 30.02 in Calm   2 mph 95% 0.00 in 0 W/m2
02:40 61.5 °F 60.1 °F 30.02 in WSW 1 mph 2 mph 95% 0.00 in 0 W/m2
02:50 61.3 °F 59.9 °F 30.02 in SE 3 mph 9 mph 95% 0.00 in 0 W/m2
03:00 61.5 °F 60.1 °F 30.02 in SE 3 mph 8 mph 95% 0.00 in 0 W/m2
03:10 61.3 °F 59.9 °F 30.01 in SE 3 mph 8 mph 95% 0.00 in 0 W/m2
03:20 61.3 °F 59.9 °F 30.01 in SSE 2 mph 5 mph 95% 0.00 in 0 W/m2
03:30 61.1 °F 59.6 °F 30.02 in Calm   5 mph 95% 0.00 in 0 W/m2
03:40 60.8 °F 59.4 °F 30.01 in Calm   5 mph 95% 0.00 in 0 W/m2
03:50 60.6 °F 59.2 °F 30.01 in Calm   5 mph 95% 0.00 in 0 W/m2
04:00 60.4 °F 59 °F 30.01 in South 1 mph 5 mph 95% 0.00 in 0 W/m2
04:10 60.1 °F 58.6 °F 30.01 in NW 1 mph 2 mph 95% 0.00 in 0 W/m2
04:20 59.9 °F 58.8 °F 30.01 in Calm   2 mph 96% 0.00 in 0 W/m2
04:30 59.7 °F 58.6 °F 30.01 in Calm   2 mph 96% 0.00 in 0 W/m2
04:40 59.6 °F 58.5 °F 30.01 in NNE 1 mph 5 mph 96% 0.00 in 0 W/m2
04:50 59.6 °F 58.5 °F 30.01 in South 2 mph 5 mph 96% 0.00 in 0 W/m2
05:00 59.2 °F 58 °F 30.01 in Calm   2 mph 96% 0.00 in 5 W/m2
05:10 59 °F 57.9 °F 30.01 in South 1 mph 4 mph 96% 0.00 in 11 W/m2
05:20 58.8 °F 57.7 °F 30.02 in Calm   4 mph 96% 0.00 in 19 W/m2
05:30 58.8 °F 58 °F 30.02 in SSE 1 mph 6 mph 97% 0.00 in 28 W/m2
05:40 58.6 °F 57.5 °F 30.02 in WNW 1 mph 2 mph 96% 0.00 in 34 W/m2
05:50 58.3 °F 57.1 °F 30.02 in Calm   6 mph 96% 0.00 in 39 W/m2
06:00 58.5 °F 57.9 °F 30.02 in SSE 1 mph 5 mph 98% 0.00 in 62 W/m2
06:10 58.5 °F 57.9 °F 30.02 in SSW 1 mph 5 mph 98% 0.00 in 96 W/m2
06:20 58.6 °F 58.1 °F 30.02 in Calm   6 mph 98% 0.00 in 125 W/m2
06:30 58.5 °F 57.9 °F 30.02 in Calm   3 mph 98% 0.00 in 157 W/m2
06:40 58.6 °F 58.1 °F 30.03 in West 2 mph 5 mph 98% 0.00 in 185 W/m2
06:50 59.4 °F 58.8 °F 30.02 in Calm   5 mph 98% 0.00 in 217 W/m2
07:00 59.9 °F 59.3 °F 30.02 in SE 2 mph 6 mph 98% 0.00 in 249 W/m2
07:10 60.5 °F 60 °F 30.03 in SE 2 mph 6 mph 98% 0.00 in 280 W/m2
07:20 61.2 °F 60.7 °F 30.03 in SE 5 mph 7 mph 98% 0.00 in 319 W/m2
07:30 62.1 °F 60.6 °F 30.03 in ESE 2 mph 7 mph 95% 0.00 in 347 W/m2
07:40 62.8 °F 61 °F 30.03 in ESE 2 mph 7 mph 94% 0.00 in 383 W/m2
07:50 63.5 °F 61.4 °F 30.03 in SE 2 mph 8 mph 93% 0.00 in 421 W/m2
08:00 64.3 °F 61.3 °F 30.03 in SE 3 mph 7 mph 90% 0.00 in 458 W/m2
08:10 65.1 °F 62.1 °F 30.03 in SE 3 mph 7 mph 90% 0.00 in 502 W/m2
08:20 65.8 °F 62.2 °F 30.03 in SE 2 mph 7 mph 88% 0.00 in 536 W/m2
08:30 66.7 °F 62.1 °F 30.02 in ESE 3 mph 7 mph 85% 0.00 in 567 W/m2
08:40 67.5 °F 62.1 °F 30.03 in SE 2 mph 7 mph 83% 0.00 in 605 W/m2
08:50 68.2 °F 62.8 °F 30.02 in South 2 mph 5 mph 83% 0.00 in 633 W/m2
09:00 70.1 °F 64.3 °F 30.02 in SSE 3 mph 9 mph 82% 0.01 in 660 W/m2
09:10 72 °F 63.3 °F 30.02 in SE 2 mph 9 mph 74% 0.00 in 687 W/m2
09:20 73.7 °F 65.6 °F 30.01 in South 2 mph 6 mph 76% 0.00 in 636 W/m2
09:30 74.7 °F 65 °F 30.01 in Calm   7 mph 72% 0.00 in 692 W/m2
09:40 75.2 °F 64.3 °F 30.01 in SW 2 mph 6 mph 69% 0.00 in 517 W/m2
09:50 75.4 °F 64.5 °F 30.01 in West 3 mph 7 mph 69% 0.00 in 729 W/m2
10:00 75.9 °F 64.6 °F 30.01 in WNW 2 mph 6 mph 68% 0.00 in 805 W/m2
10:10 77.3 °F 65.5 °F 30.01 in West 5 mph 8 mph 67% 0.00 in 825 W/m2
10:20 77.4 °F 64.2 °F 30.00 in WNW 5 mph 11 mph 64% 0.00 in 643 W/m2
10:30 77.7 °F 64.1 °F 30.00 in West 7 mph 12 mph 63% 0.00 in 863 W/m2
10:40 78.3 °F 63.2 °F 30.00 in West 6 mph 12 mph 60% 0.00 in 880 W/m2
10:50 78.6 °F 62.6 °F 30.00 in West 10 mph 15 mph 58% 0.00 in 695 W/m2
11:00 79.2 °F 62.1 °F 29.99 in West 8 mph 15 mph 56% 0.00 in 910 W/m2
11:10 79.2 °F 62.1 °F 29.99 in West 8 mph 14 mph 56% 0.00 in 923 W/m2
11:20 79.5 °F 60.9 °F 29.99 in West 6 mph 14 mph 53% 0.00 in 171 W/m2
11:30 79.8 °F 60.1 °F 29.99 in West 7 mph 15 mph 51% 0.00 in 944 W/m2
11:40 79.9 °F 60.1 °F 29.99 in West 9 mph 17 mph 51% 0.00 in 953 W/m2
11:50 80.2 °F 61.6 °F 29.98 in WSW 7 mph 17 mph 53% 0.00 in 960 W/m2
12:00 80.2 °F 61.6 °F 29.98 in WSW 7 mph 20 mph 53% 0.00 in 966 W/m2
12:10 80.4 °F 61.2 °F 29.98 in WSW 9 mph 17 mph 52% 0.00 in 413 W/m2
12:20 80.6 °F 61.3 °F 29.98 in West 9 mph 18 mph 52% 0.00 in 371 W/m2
12:30 81 °F 62.2 °F 29.97 in WSW 6 mph 15 mph 53% 0.00 in 462 W/m2
12:40 81.5 °F 62.2 °F 29.97 in West 9 mph 14 mph 52% 0.00 in 960 W/m2
12:50 81.7 °F 61.8 °F 29.97 in WSW 9 mph 15 mph 51% 0.00 in 483 W/m2
13:00 81.9 °F 61.4 °F 29.97 in WSW 8 mph 15 mph 50% 0.00 in 784 W/m2
13:10 82 °F 61.5 °F 29.96 in WSW 6 mph 16 mph 50% 0.00 in 462 W/m2
13:20 81.9 °F 60.8 °F 29.96 in West 7 mph 17 mph 49% 0.00 in 957 W/m2
13:30 82.6 °F 60.3 °F 29.96 in WSW 8 mph 18 mph 47% 0.00 in 949 W/m2
13:40 82.8 °F 60.5 °F 29.96 in WSW 8 mph 16 mph 47% 0.00 in 940 W/m2
13:50 82.9 °F 60.6 °F 29.96 in WSW 6 mph 17 mph 47% 0.00 in 930 W/m2
14:00 83.1 °F 60.8 °F 29.95 in West 7 mph 16 mph 47% 0.00 in 918 W/m2
14:10 83.1 °F 60.8 °F 29.95 in West 9 mph 15 mph 47% 0.00 in 904 W/m2
14:20 83.4 °F 60.5 °F 29.95 in West 8 mph 17 mph 46% 0.00 in 889 W/m2
14:30 83.4 °F 59.8 °F 29.95 in West 9 mph 17 mph 45% 0.00 in 873 W/m2
14:40 83.8 °F 61.4 °F 29.95 in West 7 mph 15 mph 47% 0.00 in 856 W/m2
14:50 84 °F 60.4 °F 29.95 in West 9 mph 15 mph 45% 0.00 in 837 W/m2
15:00 84.2 °F 60.6 °F 29.95 in West 5 mph 15 mph 45% 0.00 in 817 W/m2
15:10 84.4 °F 61.3 °F 29.95 in West 6 mph 13 mph 46% 0.00 in 796 W/m2
15:20 84.4 °F 60.7 °F 29.94 in West 7 mph 13 mph 45% 0.00 in 774 W/m2
15:30 84.9 °F 61.8 °F 29.94 in West 6 mph 12 mph 46% 0.00 in 751 W/m2
15:40 84.9 °F 60.6 °F 29.94 in West 8 mph 13 mph 44% 0.00 in 727 W/m2
15:50 84.2 °F 60.6 °F 29.94 in West 5 mph 12 mph 45% 0.00 in 151 W/m2
16:00 83.5 °F 59.9 °F 29.95 in WNW 6 mph 10 mph 45% 0.00 in 236 W/m2
16:10 83.7 °F 60.1 °F 29.94 in WNW 6 mph 12 mph 45% 0.00 in 649 W/m2
16:20 83.7 °F 60.1 °F 29.94 in WNW 5 mph 13 mph 45% 0.00 in 211 W/m2
16:30 83.5 °F 59.9 °F 29.94 in West 7 mph 12 mph 45% 0.00 in 436 W/m2
16:40 83.1 °F 60.2 °F 29.94 in West 2 mph 12 mph 46% 0.00 in 171 W/m2
16:50 82.4 °F 58.9 °F 29.94 in WNW 5 mph 10 mph 45% 0.00 in 195 W/m2
17:00 82.2 °F 60.5 °F 29.94 in West 3 mph 7 mph 48% 0.00 in 294 W/m2
17:10 81.9 °F 60.9 °F 29.94 in West 3 mph 8 mph 49% 0.00 in 205 W/m2
17:20 81.5 °F 60.5 °F 29.94 in West 5 mph 9 mph 49% 0.00 in 269 W/m2
17:30 81.5 °F 61.1 °F 29.94 in WSW 2 mph 8 mph 50% 0.00 in 272 W/m2
17:40 81.7 °F 61.2 °F 29.94 in West 5 mph 9 mph 50% 0.00 in 385 W/m2
17:50 82.4 °F 61.9 °F 29.93 in West 5 mph 10 mph 50% 0.00 in 354 W/m2
18:00 82.8 °F 61.6 °F 29.93 in West 6 mph 10 mph 49% 0.00 in 292 W/m2
18:10 82.4 °F 60.7 °F 29.93 in West 5 mph 10 mph 48% 0.00 in 274 W/m2
18:20 82.1 °F 60.5 °F 29.93 in West 3 mph 9 mph 48% 0.00 in 264 W/m2
18:30 82.3 °F 61.8 °F 29.93 in West 3 mph 7 mph 50% 0.00 in 203 W/m2
18:40 82.2 °F 61.7 °F 29.93 in West 2 mph 6 mph 50% 0.00 in 174 W/m2
18:50 82.2 °F 62.3 °F 29.94 in WNW 1 mph 5 mph 51% 0.00 in 144 W/m2
19:00 82 °F 62.7 °F 29.94 in WNW 1 mph 3 mph 52% 0.00 in 101 W/m2
19:10 81.7 °F 61.8 °F 29.93 in NW 2 mph 4 mph 51% 0.00 in 89 W/m2
19:20 81.3 °F 62.6 °F 29.93 in West 1 mph 4 mph 53% 0.00 in 74 W/m2
19:30 81 °F 64.3 °F 29.94 in West 1 mph 3 mph 57% 0.00 in 59 W/m2
19:40 80.3 °F 64.2 °F 29.93 in WSW 1 mph 2 mph 58% 0.00 in 38 W/m2
19:50 79.7 °F 64.1 °F 29.93 in SSW 1 mph 2 mph 59% 0.00 in 22 W/m2
20:00 78.6 °F 63.6 °F 29.93 in SSW 1 mph 2 mph 60% 0.00 in 13 W/m2
20:10 77.4 °F 63.4 °F 29.93 in SSW 2 mph 3 mph 62% 0.00 in 6 W/m2
20:20 76.3 °F 63.6 °F 29.93 in SW 2 mph 4 mph 65% 0.00 in 0 W/m2
20:30 75.1 °F 62.5 °F 29.93 in WSW 2 mph 6 mph 65% 0.00 in 0 W/m2
20:40 73.8 °F 62.6 °F 29.94 in West 2 mph 5 mph 68% 0.00 in 0 W/m2
20:50 73 °F 61.9 °F 29.94 in WSW 1 mph 6 mph 68% 0.00 in 0 W/m2
21:00 72.3 °F 60.7 °F 29.94 in SSW 2 mph 4 mph 67% 0.00 in 0 W/m2
21:10 71.6 °F 60.5 °F 29.94 in Calm   2 mph 68% 0.00 in 0 W/m2
21:20 70.9 °F 59.8 °F 29.94 in WSW 1 mph 2 mph 68% 0.00 in 0 W/m2
21:30 70.2 °F 59.5 °F 29.95 in West 1 mph 2 mph 69% 0.00 in 0 W/m2
21:40 69.4 °F 58.8 °F 29.95 in South 1 mph 2 mph 69% 0.00 in 0 W/m2
21:50 68.6 °F 58.4 °F 29.95 in SE 1 mph 4 mph 70% 0.00 in 0 W/m2
22:00 67.9 °F 58.5 °F 29.95 in West 1 mph 3 mph 72% 0.00 in 0 W/m2
22:10 67.3 °F 58 °F 29.94 in WSW 2 mph 5 mph 72% 0.00 in 0 W/m2
22:20 66.6 °F 57.6 °F 29.94 in Calm   5 mph 73% 0.00 in 0 W/m2
22:30 66.2 °F 58 °F 29.94 in Calm   1 mph 75% 0.00 in 0 W/m2
22:40 65.7 °F 59 °F 29.94 in Calm   2 mph 79% 0.00 in 0 W/m2
22:50 65.1 °F 58.8 °F 29.94 in West 1 mph 2 mph 80% 0.00 in 0 W/m2
23:00 64.4 °F 58.1 °F 29.94 in WSW 1 mph 2 mph 80% 0.00 in 0 W/m2
23:10 64 °F 58.1 °F 29.94 in Calm   2 mph 81% 0.00 in 0 W/m2
23:20 63.7 °F 57.7 °F 29.94 in West 1 mph 3 mph 81% 0.00 in 0 W/m2
23:30 63.3 °F 58.1 °F 29.94 in NW 1 mph 3 mph 83% 0.00 in 0 W/m2
23:40 62.8 °F 57.9 °F 29.94 in West 1 mph 4 mph 84% 0.00 in 0 W/m2
23:50 62.2 °F 57.3 °F 29.94 in WNW 1 mph 2 mph 84% 0.00 in 0 W/m2
Knjazevac, Serbia
Compliments of Weather Underground - 2 mb